sensor_id;sensor_type;location;lat;lon;timestamp;temperature;humidity
58582;DHT22;44361;51.476;5.700;2022-12-26T00:00:59;10.10;99.90
58582;DHT22;44361;51.476;5.700;2022-12-26T00:03:24;10.20;99.90
58582;DHT22;44361;51.476;5.700;2022-12-26T00:05:50;10.10;99.90
58582;DHT22;44361;51.476;5.700;2022-12-26T00:08:16;10.10;99.90
58582;DHT22;44361;51.476;5.700;2022-12-26T00:10:42;10.10;99.90
58582;DHT22;44361;51.476;5.700;2022-12-26T00:13:07;10.10;99.90
58582;DHT22;44361;51.476;5.700;2022-12-26T00:15:33;10.00;99.90
58582;DHT22;44361;51.476;5.700;2022-12-26T00:17:58;10.00;99.90
58582;DHT22;44361;51.476;5.700;2022-12-26T00:20:24;10.00;99.90
58582;DHT22;44361;51.476;5.700;2022-12-26T00:22:49;10.00;99.90
58582;DHT22;44361;51.476;5.700;2022-12-26T00:25:15;10.00;99.90
58582;DHT22;44361;51.476;5.700;2022-12-26T00:27:40;10.00;99.90
58582;DHT22;44361;51.476;5.700;2022-12-26T00:30:07;10.00;99.90
58582;DHT22;44361;51.476;5.700;2022-12-26T00:32:32;10.00;99.90
58582;DHT22;44361;51.476;5.700;2022-12-26T00:34:58;10.00;99.90
58582;DHT22;44361;51.476;5.700;2022-12-26T00:37:24;10.00;99.90
58582;DHT22;44361;51.476;5.700;2022-12-26T00:39:50;10.00;99.90
58582;DHT22;44361;51.476;5.700;2022-12-26T00:42:15;10.00;99.90
58582;DHT22;44361;51.476;5.700;2022-12-26T00:44:40;10.00;99.90
58582;DHT22;44361;51.476;5.700;2022-12-26T00:47:06;10.00;99.90
58582;DHT22;44361;51.476;5.700;2022-12-26T00:49:32;10.00;99.90
58582;DHT22;44361;51.476;5.700;2022-12-26T00:51:57;10.00;99.90
58582;DHT22;44361;51.476;5.700;2022-12-26T00:54:23;10.00;99.90
58582;DHT22;44361;51.476;5.700;2022-12-26T00:56:48;10.00;99.90
58582;DHT22;44361;51.476;5.700;2022-12-26T00:59:14;10.00;99.90
58582;DHT22;44361;51.476;5.700;2022-12-26T01:01:39;9.90;99.90
58582;DHT22;44361;51.476;5.700;2022-12-26T01:04:05;10.00;99.90
58582;DHT22;44361;51.476;5.700;2022-12-26T01:06:30;9.90;99.90
58582;DHT22;44361;51.476;5.700;2022-12-26T01:08:56;9.90;99.90
58582;DHT22;44361;51.476;5.700;2022-12-26T01:11:23;9.90;99.90
58582;DHT22;44361;51.476;5.700;2022-12-26T01:14:06;9.90;99.90
58582;DHT22;44361;51.476;5.700;2022-12-26T01:16:31;9.90;99.90
58582;DHT22;44361;51.476;5.700;2022-12-26T01:18:57;9.90;99.90
58582;DHT22;44361;51.476;5.700;2022-12-26T01:21:23;10.00;99.90
58582;DHT22;44361;51.476;5.700;2022-12-26T01:23:48;9.90;99.90
58582;DHT22;44361;51.476;5.700;2022-12-26T01:26:14;9.90;99.90
58582;DHT22;44361;51.476;5.700;2022-12-26T01:28:39;9.90;99.90
58582;DHT22;44361;51.476;5.700;2022-12-26T01:31:05;9.90;99.90
58582;DHT22;44361;51.476;5.700;2022-12-26T01:33:31;9.90;99.90
58582;DHT22;44361;51.476;5.700;2022-12-26T01:35:57;9.80;99.90
58582;DHT22;44361;51.476;5.700;2022-12-26T01:38:22;9.80;99.90
58582;DHT22;44361;51.476;5.700;2022-12-26T01:40:48;9.80;99.90
58582;DHT22;44361;51.476;5.700;2022-12-26T01:44:03;9.80;99.90
58582;DHT22;44361;51.476;5.700;2022-12-26T01:46:38;9.70;99.90
58582;DHT22;44361;51.476;5.700;2022-12-26T01:49:12;9.80;99.90
58582;DHT22;44361;51.476;5.700;2022-12-26T01:51:43;9.80;99.90
58582;DHT22;44361;51.476;5.700;2022-12-26T01:54:12;9.80;99.90
58582;DHT22;44361;51.476;5.700;2022-12-26T01:56:40;9.80;99.90
58582;DHT22;44361;51.476;5.700;2022-12-26T01:59:26;9.80;99.90
58582;DHT22;44361;51.476;5.700;2022-12-26T02:01:54;9.80;99.90
58582;DHT22;44361;51.476;5.700;2022-12-26T02:04:23;9.80;99.90
58582;DHT22;44361;51.476;5.700;2022-12-26T02:07:08;9.80;99.90
58582;DHT22;44361;51.476;5.700;2022-12-26T02:09:35;9.80;99.90
58582;DHT22;44361;51.476;5.700;2022-12-26T02:14:32;9.70;99.90
58582;DHT22;44361;51.476;5.700;2022-12-26T02:16:57;9.60;99.90
58582;DHT22;44361;51.476;5.700;2022-12-26T02:20:00;9.60;99.90
58582;DHT22;44361;51.476;5.700;2022-12-26T02:27:45;9.40;99.90
58582;DHT22;44361;51.476;5.700;2022-12-26T02:33:13;9.30;99.90
58582;DHT22;44361;51.476;5.700;2022-12-26T02:38:51;9.30;99.90
58582;DHT22;44361;51.476;5.700;2022-12-26T02:44:24;9.30;99.90
58582;DHT22;44361;51.476;5.700;2022-12-26T02:47:24;9.40;99.90
58582;DHT22;44361;51.476;5.700;2022-12-26T02:50:13;9.40;99.90
58582;DHT22;44361;51.476;5.700;2022-12-26T02:53:20;9.40;99.90
58582;DHT22;44361;51.476;5.700;2022-12-26T02:56:18;9.50;99.90
58582;DHT22;44361;51.476;5.700;2022-12-26T02:59:30;9.50;99.90
58582;DHT22;44361;51.476;5.700;2022-12-26T03:02:26;9.50;99.90
58582;DHT22;44361;51.476;5.700;2022-12-26T03:05:24;9.50;99.90
58582;DHT22;44361;51.476;5.700;2022-12-26T03:08:15;9.50;99.90
58582;DHT22;44361;51.476;5.700;2022-12-26T03:11:01;9.60;99.90
58582;DHT22;44361;51.476;5.700;2022-12-26T03:13:46;9.50;99.90
58582;DHT22;44361;51.476;5.700;2022-12-26T03:16:14;9.50;99.90
58582;DHT22;44361;51.476;5.700;2022-12-26T03:19:02;9.60;99.90
58582;DHT22;44361;51.476;5.700;2022-12-26T03:21:36;9.60;99.90
58582;DHT22;44361;51.476;5.700;2022-12-26T03:24:05;9.60;99.90
58582;DHT22;44361;51.476;5.700;2022-12-26T03:26:37;9.60;99.90
58582;DHT22;44361;51.476;5.700;2022-12-26T03:29:16;9.60;99.90
58582;DHT22;44361;51.476;5.700;2022-12-26T03:32:03;9.50;99.90
58582;DHT22;44361;51.476;5.700;2022-12-26T03:34:29;9.50;99.90
58582;DHT22;44361;51.476;5.700;2022-12-26T03:39:41;9.50;99.90
58582;DHT22;44361;51.476;5.700;2022-12-26T03:45:35;9.50;99.90
58582;DHT22;44361;51.476;5.700;2022-12-26T03:51:30;9.50;99.90
58582;DHT22;44361;51.476;5.700;2022-12-26T03:54:23;9.50;99.90
58582;DHT22;44361;51.476;5.700;2022-12-26T03:57:14;9.40;99.90
58582;DHT22;44361;51.476;5.700;2022-12-26T04:00:09;9.40;99.90
58582;DHT22;44361;51.476;5.700;2022-12-26T04:02:58;9.30;99.90
58582;DHT22;44361;51.476;5.700;2022-12-26T04:05:44;9.30;99.90
58582;DHT22;44361;51.476;5.700;2022-12-26T04:08:57;9.30;99.90
58582;DHT22;44361;51.476;5.700;2022-12-26T04:11:43;9.30;99.90
58582;DHT22;44361;51.476;5.700;2022-12-26T04:14:39;9.30;99.90
58582;DHT22;44361;51.476;5.700;2022-12-26T04:17:55;9.30;99.90
58582;DHT22;44361;51.476;5.700;2022-12-26T04:21:03;9.20;99.90
58582;DHT22;44361;51.476;5.700;2022-12-26T04:23:41;9.20;99.90
58582;DHT22;44361;51.476;5.700;2022-12-26T04:26:37;9.20;99.90
58582;DHT22;44361;51.476;5.700;2022-12-26T04:29:24;9.20;99.90
58582;DHT22;44361;51.476;5.700;2022-12-26T04:32:20;9.20;99.90
58582;DHT22;44361;51.476;5.700;2022-12-26T04:35:21;9.20;99.90
58582;DHT22;44361;51.476;5.700;2022-12-26T04:38:09;9.10;99.90
58582;DHT22;44361;51.476;5.700;2022-12-26T04:40:58;9.10;99.90
58582;DHT22;44361;51.476;5.700;2022-12-26T04:43:43;9.10;99.90
58582;DHT22;44361;51.476;5.700;2022-12-26T04:46:30;9.10;99.90
58582;DHT22;44361;51.476;5.700;2022-12-26T04:48:57;9.00;99.90
58582;DHT22;44361;51.476;5.700;2022-12-26T04:51:41;9.00;99.90
58582;DHT22;44361;51.476;5.700;2022-12-26T04:54:06;9.00;99.90
58582;DHT22;44361;51.476;5.700;2022-12-26T04:56:32;8.90;99.90
58582;DHT22;44361;51.476;5.700;2022-12-26T04:58:58;8.90;99.90
58582;DHT22;44361;51.476;5.700;2022-12-26T05:01:24;9.00;99.90
58582;DHT22;44361;51.476;5.700;2022-12-26T05:04:13;9.00;99.90
58582;DHT22;44361;51.476;5.700;2022-12-26T05:06:58;8.90;99.90
58582;DHT22;44361;51.476;5.700;2022-12-26T05:09:43;8.90;99.90
58582;DHT22;44361;51.476;5.700;2022-12-26T05:12:09;8.80;99.90
58582;DHT22;44361;51.476;5.700;2022-12-26T05:14:35;8.80;99.90
58582;DHT22;44361;51.476;5.700;2022-12-26T05:17:01;8.90;99.90
58582;DHT22;44361;51.476;5.700;2022-12-26T05:19:45;8.90;99.90
58582;DHT22;44361;51.476;5.700;2022-12-26T05:22:31;8.90;99.90
58582;DHT22;44361;51.476;5.700;2022-12-26T05:25:18;8.80;99.90
58582;DHT22;44361;51.476;5.700;2022-12-26T05:28:04;8.80;99.90
58582;DHT22;44361;51.476;5.700;2022-12-26T05:30:48;8.80;99.90
58582;DHT22;44361;51.476;5.700;2022-12-26T05:33:13;8.80;99.90
58582;DHT22;44361;51.476;5.700;2022-12-26T05:35:58;8.80;99.90
58582;DHT22;44361;51.476;5.700;2022-12-26T05:38:23;8.80;99.90
58582;DHT22;44361;51.476;5.700;2022-12-26T05:40:49;8.70;99.90
58582;DHT22;44361;51.476;5.700;2022-12-26T05:43:14;8.70;99.90
58582;DHT22;44361;51.476;5.700;2022-12-26T05:45:40;8.70;99.90
58582;DHT22;44361;51.476;5.700;2022-12-26T05:48:05;8.70;99.90
58582;DHT22;44361;51.476;5.700;2022-12-26T05:50:31;8.70;99.90
58582;DHT22;44361;51.476;5.700;2022-12-26T05:52:58;8.60;99.90
58582;DHT22;44361;51.476;5.700;2022-12-26T05:55:24;8.60;99.90
58582;DHT22;44361;51.476;5.700;2022-12-26T05:57:50;8.60;99.90
58582;DHT22;44361;51.476;5.700;2022-12-26T06:00:16;8.50;99.90
58582;DHT22;44361;51.476;5.700;2022-12-26T06:02:41;8.50;99.90
58582;DHT22;44361;51.476;5.700;2022-12-26T06:05:07;8.40;99.90
58582;DHT22;44361;51.476;5.700;2022-12-26T06:07:33;8.50;99.90
58582;DHT22;44361;51.476;5.700;2022-12-26T06:09:58;8.40;99.90
58582;DHT22;44361;51.476;5.700;2022-12-26T06:12:24;8.40;99.90
58582;DHT22;44361;51.476;5.700;2022-12-26T06:14:49;8.30;99.90
58582;DHT22;44361;51.476;5.700;2022-12-26T06:17:15;8.30;99.90
58582;DHT22;44361;51.476;5.700;2022-12-26T06:19:40;8.30;99.90
58582;DHT22;44361;51.476;5.700;2022-12-26T06:22:06;8.20;99.90
58582;DHT22;44361;51.476;5.700;2022-12-26T06:24:31;8.30;99.90
58582;DHT22;44361;51.476;5.700;2022-12-26T06:26:57;8.50;99.90
58582;DHT22;44361;51.476;5.700;2022-12-26T06:29:22;8.50;99.90
58582;DHT22;44361;51.476;5.700;2022-12-26T06:31:48;8.60;99.90
58582;DHT22;44361;51.476;5.700;2022-12-26T06:34:13;8.60;99.90
58582;DHT22;44361;51.476;5.700;2022-12-26T06:36:39;8.70;99.90
58582;DHT22;44361;51.476;5.700;2022-12-26T06:39:04;8.70;99.90
58582;DHT22;44361;51.476;5.700;2022-12-26T06:41:30;8.70;99.90
58582;DHT22;44361;51.476;5.700;2022-12-26T06:43:55;8.80;99.90
58582;DHT22;44361;51.476;5.700;2022-12-26T06:46:23;8.80;99.90
58582;DHT22;44361;51.476;5.700;2022-12-26T06:48:49;8.90;99.90
58582;DHT22;44361;51.476;5.700;2022-12-26T06:51:18;8.90;99.90
58582;DHT22;44361;51.476;5.700;2022-12-26T06:53:44;8.90;99.90
58582;DHT22;44361;51.476;5.700;2022-12-26T06:56:18;8.90;99.90
58582;DHT22;44361;51.476;5.700;2022-12-26T06:58:44;9.00;99.90
58582;DHT22;44361;51.476;5.700;2022-12-26T07:01:15;9.00;99.90
58582;DHT22;44361;51.476;5.700;2022-12-26T07:03:41;9.00;99.90
58582;DHT22;44361;51.476;5.700;2022-12-26T07:06:12;9.00;99.90
58582;DHT22;44361;51.476;5.700;2022-12-26T07:08:41;9.00;99.90
58582;DHT22;44361;51.476;5.700;2022-12-26T07:11:13;8.90;99.90
58582;DHT22;44361;51.476;5.700;2022-12-26T07:13:39;8.90;99.90
58582;DHT22;44361;51.476;5.700;2022-12-26T07:16:04;8.90;99.90
58582;DHT22;44361;51.476;5.700;2022-12-26T07:18:30;8.80;99.90
58582;DHT22;44361;51.476;5.700;2022-12-26T07:20:55;8.80;99.90
58582;DHT22;44361;51.476;5.700;2022-12-26T07:23:21;8.80;99.90
58582;DHT22;44361;51.476;5.700;2022-12-26T07:25:47;8.80;99.90
58582;DHT22;44361;51.476;5.700;2022-12-26T07:28:14;8.70;99.90
58582;DHT22;44361;51.476;5.700;2022-12-26T07:30:46;8.70;99.90
58582;DHT22;44361;51.476;5.700;2022-12-26T07:33:11;8.60;99.90
58582;DHT22;44361;51.476;5.700;2022-12-26T07:35:37;8.70;99.90
58582;DHT22;44361;51.476;5.700;2022-12-26T07:38:02;8.60;99.90
58582;DHT22;44361;51.476;5.700;2022-12-26T07:40:28;8.70;99.90
58582;DHT22;44361;51.476;5.700;2022-12-26T07:42:53;8.60;99.90
58582;DHT22;44361;51.476;5.700;2022-12-26T07:45:19;8.60;99.90
58582;DHT22;44361;51.476;5.700;2022-12-26T07:47:44;8.60;99.90
58582;DHT22;44361;51.476;5.700;2022-12-26T07:50:10;8.60;99.90
58582;DHT22;44361;51.476;5.700;2022-12-26T07:52:36;8.60;99.90
58582;DHT22;44361;51.476;5.700;2022-12-26T07:55:01;8.60;99.90
58582;DHT22;44361;51.476;5.700;2022-12-26T07:57:28;8.70;99.90
58582;DHT22;44361;51.476;5.700;2022-12-26T07:59:54;8.70;99.90
58582;DHT22;44361;51.476;5.700;2022-12-26T08:02:19;8.70;99.90
58582;DHT22;44361;51.476;5.700;2022-12-26T08:04:45;8.70;99.90
58582;DHT22;44361;51.476;5.700;2022-12-26T08:07:10;8.60;99.90
58582;DHT22;44361;51.476;5.700;2022-12-26T08:09:36;8.70;99.90
58582;DHT22;44361;51.476;5.700;2022-12-26T08:12:04;8.80;99.90
58582;DHT22;44361;51.476;5.700;2022-12-26T08:14:29;8.70;99.90
58582;DHT22;44361;51.476;5.700;2022-12-26T08:16:55;8.70;99.90
58582;DHT22;44361;51.476;5.700;2022-12-26T08:19:20;8.70;99.90
58582;DHT22;44361;51.476;5.700;2022-12-26T08:21:46;8.80;99.90
58582;DHT22;44361;51.476;5.700;2022-12-26T08:24:11;8.80;99.90
58582;DHT22;44361;51.476;5.700;2022-12-26T08:26:37;8.80;99.90
58582;DHT22;44361;51.476;5.700;2022-12-26T08:29:03;8.80;99.90
58582;DHT22;44361;51.476;5.700;2022-12-26T08:31:28;8.80;99.90
58582;DHT22;44361;51.476;5.700;2022-12-26T08:33:55;8.80;99.90
58582;DHT22;44361;51.476;5.700;2022-12-26T08:36:22;8.80;99.90
58582;DHT22;44361;51.476;5.700;2022-12-26T08:38:47;8.80;99.90
58582;DHT22;44361;51.476;5.700;2022-12-26T08:41:13;8.80;99.90
58582;DHT22;44361;51.476;5.700;2022-12-26T08:43:38;8.80;99.90
58582;DHT22;44361;51.476;5.700;2022-12-26T08:46:07;8.90;99.90
58582;DHT22;44361;51.476;5.700;2022-12-26T08:48:34;8.90;99.90
58582;DHT22;44361;51.476;5.700;2022-12-26T08:51:02;9.00;99.90
58582;DHT22;44361;51.476;5.700;2022-12-26T08:53:29;9.00;99.90
58582;DHT22;44361;51.476;5.700;2022-12-26T08:55:57;9.10;99.90
58582;DHT22;44361;51.476;5.700;2022-12-26T08:58:23;9.20;99.90
58582;DHT22;44361;51.476;5.700;2022-12-26T09:00:50;9.30;99.90
58582;DHT22;44361;51.476;5.700;2022-12-26T09:03:15;9.50;99.90
58582;DHT22;44361;51.476;5.700;2022-12-26T09:05:41;9.50;99.90
58582;DHT22;44361;51.476;5.700;2022-12-26T09:08:07;9.60;99.90
58582;DHT22;44361;51.476;5.700;2022-12-26T09:10:32;9.70;99.90
58582;DHT22;44361;51.476;5.700;2022-12-26T09:12:58;9.90;99.90
58582;DHT22;44361;51.476;5.700;2022-12-26T09:15:24;10.00;99.90
58582;DHT22;44361;51.476;5.700;2022-12-26T09:17:49;10.00;99.90
58582;DHT22;44361;51.476;5.700;2022-12-26T09:20:15;10.00;99.90
58582;DHT22;44361;51.476;5.700;2022-12-26T09:22:40;10.10;99.90
58582;DHT22;44361;51.476;5.700;2022-12-26T09:25:15;10.20;99.90
58582;DHT22;44361;51.476;5.700;2022-12-26T09:27:41;10.20;99.90
58582;DHT22;44361;51.476;5.700;2022-12-26T09:30:07;10.30;99.90
58582;DHT22;44361;51.476;5.700;2022-12-26T09:32:33;10.30;99.90
58582;DHT22;44361;51.476;5.700;2022-12-26T09:34:59;10.40;99.90
58582;DHT22;44361;51.476;5.700;2022-12-26T09:37:25;10.30;99.90
58582;DHT22;44361;51.476;5.700;2022-12-26T09:39:50;10.30;99.90
58582;DHT22;44361;51.476;5.700;2022-12-26T09:45:15;10.40;99.90
58582;DHT22;44361;51.476;5.700;2022-12-26T09:50:34;10.40;99.90
58582;DHT22;44361;51.476;5.700;2022-12-26T09:56:16;10.50;99.90
58582;DHT22;44361;51.476;5.700;2022-12-26T09:58:53;10.50;99.90
58582;DHT22;44361;51.476;5.700;2022-12-26T10:01:23;10.50;99.90
58582;DHT22;44361;51.476;5.700;2022-12-26T10:03:54;10.40;99.90
58582;DHT22;44361;51.476;5.700;2022-12-26T10:06:29;10.50;99.90
58582;DHT22;44361;51.476;5.700;2022-12-26T10:14:49;10.50;99.90
58582;DHT22;44361;51.476;5.700;2022-12-26T10:17:35;10.50;99.90
58582;DHT22;44361;51.476;5.700;2022-12-26T10:26:06;10.40;99.90
58582;DHT22;44361;51.476;5.700;2022-12-26T10:32:10;10.40;99.90
58582;DHT22;44361;51.476;5.700;2022-12-26T10:36:39;10.40;99.90
58582;DHT22;44361;51.476;5.700;2022-12-26T10:39:12;10.50;99.90
58582;DHT22;44361;51.476;5.700;2022-12-26T10:41:41;10.50;99.90
58582;DHT22;44361;51.476;5.700;2022-12-26T10:44:13;10.60;99.90
58582;DHT22;44361;51.476;5.700;2022-12-26T10:47:11;10.60;99.90
58582;DHT22;44361;51.476;5.700;2022-12-26T10:49:38;10.60;99.90
58582;DHT22;44361;51.476;5.700;2022-12-26T10:52:04;10.60;99.90
58582;DHT22;44361;51.476;5.700;2022-12-26T10:54:30;10.50;99.90
58582;DHT22;44361;51.476;5.700;2022-12-26T10:56:57;10.50;99.90
58582;DHT22;44361;51.476;5.700;2022-12-26T10:59:46;10.50;99.90
58582;DHT22;44361;51.476;5.700;2022-12-26T11:02:31;10.50;99.90
58582;DHT22;44361;51.476;5.700;2022-12-26T11:05:07;10.60;99.90
58582;DHT22;44361;51.476;5.700;2022-12-26T11:07:36;10.60;99.90
58582;DHT22;44361;51.476;5.700;2022-12-26T11:10:04;10.10;99.90
58582;DHT22;44361;51.476;5.700;2022-12-26T11:13:03;9.50;99.90
58582;DHT22;44361;51.476;5.700;2022-12-26T11:15:38;9.10;99.90
58582;DHT22;44361;51.476;5.700;2022-12-26T11:18:34;8.90;99.90
58582;DHT22;44361;51.476;5.700;2022-12-26T11:21:21;8.80;99.90
58582;DHT22;44361;51.476;5.700;2022-12-26T11:23:50;8.80;99.90
58582;DHT22;44361;51.476;5.700;2022-12-26T11:26:28;8.80;99.90
58582;DHT22;44361;51.476;5.700;2022-12-26T11:31:42;9.00;99.90
58582;DHT22;44361;51.476;5.700;2022-12-26T11:34:10;9.10;99.90
58582;DHT22;44361;51.476;5.700;2022-12-26T11:36:44;9.20;99.90
58582;DHT22;44361;51.476;5.700;2022-12-26T11:39:23;9.20;99.90
58582;DHT22;44361;51.476;5.700;2022-12-26T11:41:50;9.10;99.90
58582;DHT22;44361;51.476;5.700;2022-12-26T11:46:59;9.00;99.90
58582;DHT22;44361;51.476;5.700;2022-12-26T11:49:44;9.00;99.90
58582;DHT22;44361;51.476;5.700;2022-12-26T11:52:31;9.00;99.90
58582;DHT22;44361;51.476;5.700;2022-12-26T11:54:57;9.00;99.90
58582;DHT22;44361;51.476;5.700;2022-12-26T11:59:54;9.00;99.90
58582;DHT22;44361;51.476;5.700;2022-12-26T12:04:52;9.00;99.90
58582;DHT22;44361;51.476;5.700;2022-12-26T12:07:35;8.90;99.90
58582;DHT22;44361;51.476;5.700;2022-12-26T12:12:49;8.70;99.90
58582;DHT22;44361;51.476;5.700;2022-12-26T12:15:39;8.70;99.90
58582;DHT22;44361;51.476;5.700;2022-12-26T12:26:45;8.60;99.90
58582;DHT22;44361;51.476;5.700;2022-12-26T12:29:38;8.60;99.90
58582;DHT22;44361;51.476;5.700;2022-12-26T12:32:17;8.60;99.90
58582;DHT22;44361;51.476;5.700;2022-12-26T12:35:18;8.60;99.90
58582;DHT22;44361;51.476;5.700;2022-12-26T12:40:52;8.60;99.90
58582;DHT22;44361;51.476;5.700;2022-12-26T12:44:00;8.60;99.90
58582;DHT22;44361;51.476;5.700;2022-12-26T12:47:04;8.60;99.90
58582;DHT22;44361;51.476;5.700;2022-12-26T12:50:04;8.50;99.90
58582;DHT22;44361;51.476;5.700;2022-12-26T12:58:12;8.60;99.90
58582;DHT22;44361;51.476;5.700;2022-12-26T13:00:43;8.50;99.90
58582;DHT22;44361;51.476;5.700;2022-12-26T13:03:29;8.50;99.90
58582;DHT22;44361;51.476;5.700;2022-12-26T13:11:41;8.30;99.90
58582;DHT22;44361;51.476;5.700;2022-12-26T13:14:27;8.20;99.90
58582;DHT22;44361;51.476;5.700;2022-12-26T13:17:00;8.20;99.90
58582;DHT22;44361;51.476;5.700;2022-12-26T13:19:34;8.30;99.90
58582;DHT22;44361;51.476;5.700;2022-12-26T13:22:08;8.20;99.90
58582;DHT22;44361;51.476;5.700;2022-12-26T13:24:40;8.10;99.90
58582;DHT22;44361;51.476;5.700;2022-12-26T13:27:24;8.10;99.90
58582;DHT22;44361;51.476;5.700;2022-12-26T13:29:50;8.10;99.90
58582;DHT22;44361;51.476;5.700;2022-12-26T13:32:25;8.10;99.90
58582;DHT22;44361;51.476;5.700;2022-12-26T13:34:53;8.00;99.90
58582;DHT22;44361;51.476;5.700;2022-12-26T13:40:25;7.90;99.90
58582;DHT22;44361;51.476;5.700;2022-12-26T13:43:02;7.90;99.90
58582;DHT22;44361;51.476;5.700;2022-12-26T13:45:52;7.80;99.90
58582;DHT22;44361;51.476;5.700;2022-12-26T13:50:53;7.80;99.90
58582;DHT22;44361;51.476;5.700;2022-12-26T13:55:59;7.60;99.90
58582;DHT22;44361;51.476;5.700;2022-12-26T13:58:36;7.60;99.90
58582;DHT22;44361;51.476;5.700;2022-12-26T14:04:50;7.60;99.90
58582;DHT22;44361;51.476;5.700;2022-12-26T14:07:40;7.60;99.90
58582;DHT22;44361;51.476;5.700;2022-12-26T14:10:29;7.40;99.90
58582;DHT22;44361;51.476;5.700;2022-12-26T14:13:22;7.40;99.90
58582;DHT22;44361;51.476;5.700;2022-12-26T14:15:57;7.30;99.90
58582;DHT22;44361;51.476;5.700;2022-12-26T14:21:42;7.30;99.90
58582;DHT22;44361;51.476;5.700;2022-12-26T14:27:39;7.20;99.90
58582;DHT22;44361;51.476;5.700;2022-12-26T14:39:16;7.20;99.90
58582;DHT22;44361;51.476;5.700;2022-12-26T14:44:54;7.00;99.90
58582;DHT22;44361;51.476;5.700;2022-12-26T14:47:44;6.90;99.90
58582;DHT22;44361;51.476;5.700;2022-12-26T14:53:30;6.70;99.90
58582;DHT22;44361;51.476;5.700;2022-12-26T14:58:49;6.60;99.90
58582;DHT22;44361;51.476;5.700;2022-12-26T15:06:31;6.50;99.90
58582;DHT22;44361;51.476;5.700;2022-12-26T15:09:09;6.40;99.90
58582;DHT22;44361;51.476;5.700;2022-12-26T15:12:18;6.40;99.90
58582;DHT22;44361;51.476;5.700;2022-12-26T15:17:50;6.30;99.90
58582;DHT22;44361;51.476;5.700;2022-12-26T15:34:42;5.80;99.90
58582;DHT22;44361;51.476;5.700;2022-12-26T15:40:00;5.70;99.90
58582;DHT22;44361;51.476;5.700;2022-12-26T15:51:09;5.60;99.90
58582;DHT22;44361;51.476;5.700;2022-12-26T15:56:33;5.40;99.90
58582;DHT22;44361;51.476;5.700;2022-12-26T16:02:35;5.30;99.90
58582;DHT22;44361;51.476;5.700;2022-12-26T16:07:40;5.20;99.90
58582;DHT22;44361;51.476;5.700;2022-12-26T16:15:23;5.20;99.90
58582;DHT22;44361;51.476;5.700;2022-12-26T16:17:49;5.20;99.90
58582;DHT22;44361;51.476;5.700;2022-12-26T16:23:14;5.20;99.90
58582;DHT22;44361;51.476;5.700;2022-12-26T16:25:48;5.10;99.90
58582;DHT22;44361;51.476;5.700;2022-12-26T16:28:16;5.10;99.90
58582;DHT22;44361;51.476;5.700;2022-12-26T16:30:43;5.00;99.90
58582;DHT22;44361;51.476;5.700;2022-12-26T16:33:12;5.00;99.90
58582;DHT22;44361;51.476;5.700;2022-12-26T16:35:39;4.90;99.90
58582;DHT22;44361;51.476;5.700;2022-12-26T16:38:11;4.80;99.90
58582;DHT22;44361;51.476;5.700;2022-12-26T16:40:41;4.70;99.90
58582;DHT22;44361;51.476;5.700;2022-12-26T16:45:44;4.70;99.90
58582;DHT22;44361;51.476;5.700;2022-12-26T16:48:15;4.80;99.90
58582;DHT22;44361;51.476;5.700;2022-12-26T16:50:47;4.90;99.90
58582;DHT22;44361;51.476;5.700;2022-12-26T16:53:22;4.90;99.90
58582;DHT22;44361;51.476;5.700;2022-12-26T16:56:12;4.90;99.90
58582;DHT22;44361;51.476;5.700;2022-12-26T16:58:39;4.80;99.90
58582;DHT22;44361;51.476;5.700;2022-12-26T17:01:09;4.80;99.90
58582;DHT22;44361;51.476;5.700;2022-12-26T17:04:17;4.70;99.90
58582;DHT22;44361;51.476;5.700;2022-12-26T17:06:39;4.60;99.90
58582;DHT22;44361;51.476;5.700;2022-12-26T17:09:11;4.40;99.90
58582;DHT22;44361;51.476;5.700;2022-12-26T17:11:51;4.30;99.90
58582;DHT22;44361;51.476;5.700;2022-12-26T17:14:30;4.20;99.90
58582;DHT22;44361;51.476;5.700;2022-12-26T17:16:59;4.20;99.90
58582;DHT22;44361;51.476;5.700;2022-12-26T17:19:27;4.10;99.90
58582;DHT22;44361;51.476;5.700;2022-12-26T17:24:38;4.10;99.90
58582;DHT22;44361;51.476;5.700;2022-12-26T17:27:24;4.10;99.90
58582;DHT22;44361;51.476;5.700;2022-12-26T17:29:58;4.00;99.90
58582;DHT22;44361;51.476;5.700;2022-12-26T17:35:12;3.90;99.90
58582;DHT22;44361;51.476;5.700;2022-12-26T17:37:38;3.80;99.90
58582;DHT22;44361;51.476;5.700;2022-12-26T17:42:48;3.80;99.90
58582;DHT22;44361;51.476;5.700;2022-12-26T17:45:24;3.70;99.90
58582;DHT22;44361;51.476;5.700;2022-12-26T17:47:51;3.60;99.90
58582;DHT22;44361;51.476;5.700;2022-12-26T17:50:17;3.60;99.90
58582;DHT22;44361;51.476;5.700;2022-12-26T17:52:43;3.60;99.90
58582;DHT22;44361;51.476;5.700;2022-12-26T17:55:18;3.50;99.90
58582;DHT22;44361;51.476;5.700;2022-12-26T17:57:45;3.50;99.90
58582;DHT22;44361;51.476;5.700;2022-12-26T18:00:17;3.50;99.90
58582;DHT22;44361;51.476;5.700;2022-12-26T18:02:42;3.50;99.90
58582;DHT22;44361;51.476;5.700;2022-12-26T18:05:08;3.40;99.90
58582;DHT22;44361;51.476;5.700;2022-12-26T18:07:33;3.30;99.90
58582;DHT22;44361;51.476;5.700;2022-12-26T18:10:00;3.30;99.90
58582;DHT22;44361;51.476;5.700;2022-12-26T18:12:26;3.30;99.90
58582;DHT22;44361;51.476;5.700;2022-12-26T18:14:52;3.30;99.90
58582;DHT22;44361;51.476;5.700;2022-12-26T18:17:17;3.20;99.90
58582;DHT22;44361;51.476;5.700;2022-12-26T18:19:44;3.20;99.90
58582;DHT22;44361;51.476;5.700;2022-12-26T18:22:17;3.20;99.90
58582;DHT22;44361;51.476;5.700;2022-12-26T18:24:43;3.20;99.90
58582;DHT22;44361;51.476;5.700;2022-12-26T18:27:30;3.10;99.90
58582;DHT22;44361;51.476;5.700;2022-12-26T18:29:57;3.10;99.90
58582;DHT22;44361;51.476;5.700;2022-12-26T18:32:30;3.10;99.90
58582;DHT22;44361;51.476;5.700;2022-12-26T18:34:56;3.10;99.90
58582;DHT22;44361;51.476;5.700;2022-12-26T18:37:24;3.10;99.90
58582;DHT22;44361;51.476;5.700;2022-12-26T18:39:50;3.10;99.90
58582;DHT22;44361;51.476;5.700;2022-12-26T18:42:16;3.00;99.90
58582;DHT22;44361;51.476;5.700;2022-12-26T18:44:42;2.90;99.90
58582;DHT22;44361;51.476;5.700;2022-12-26T18:47:13;2.80;99.90
58582;DHT22;44361;51.476;5.700;2022-12-26T18:49:40;2.80;99.90
58582;DHT22;44361;51.476;5.700;2022-12-26T18:52:05;2.80;99.90
58582;DHT22;44361;51.476;5.700;2022-12-26T18:54:31;2.70;99.90
58582;DHT22;44361;51.476;5.700;2022-12-26T18:56:57;2.70;99.90
58582;DHT22;44361;51.476;5.700;2022-12-26T18:59:22;2.70;99.90
58582;DHT22;44361;51.476;5.700;2022-12-26T19:01:48;2.70;99.90
58582;DHT22;44361;51.476;5.700;2022-12-26T19:04:14;2.70;99.90
58582;DHT22;44361;51.476;5.700;2022-12-26T19:06:40;2.70;99.90
58582;DHT22;44361;51.476;5.700;2022-12-26T19:09:07;2.70;99.90
58582;DHT22;44361;51.476;5.700;2022-12-26T19:11:33;2.70;99.90
58582;DHT22;44361;51.476;5.700;2022-12-26T19:13:58;2.70;99.90
58582;DHT22;44361;51.476;5.700;2022-12-26T19:16:25;2.70;99.90
58582;DHT22;44361;51.476;5.700;2022-12-26T19:18:51;2.80;99.90
58582;DHT22;44361;51.476;5.700;2022-12-26T19:21:16;2.80;99.90
58582;DHT22;44361;51.476;5.700;2022-12-26T19:23:45;2.80;99.90